createdAt,value
2022-08-26T00:00:00.583Z,86
2022-08-26T00:03:25.760Z,86
2022-08-26T00:06:51.016Z,86
2022-08-26T00:10:16.196Z,86
2022-08-26T00:13:41.362Z,86
2022-08-26T00:17:06.539Z,86
2022-08-26T00:20:31.692Z,86
2022-08-26T00:23:56.860Z,87
2022-08-26T00:27:22.045Z,87
2022-08-26T00:30:47.233Z,86
2022-08-26T00:34:12.408Z,86
2022-08-26T00:37:37.571Z,85
2022-08-26T00:41:02.752Z,85
2022-08-26T00:44:27.951Z,85
2022-08-26T00:47:53.151Z,85
2022-08-26T00:51:18.313Z,85
2022-08-26T00:54:43.547Z,85
2022-08-26T00:58:08.759Z,86
2022-08-26T01:01:34.007Z,86
2022-08-26T01:04:59.179Z,86
2022-08-26T01:08:24.461Z,86
2022-08-26T01:11:49.627Z,86
2022-08-26T01:15:14.826Z,86
2022-08-26T01:18:40.056Z,86
2022-08-26T01:22:05.220Z,86
2022-08-26T01:25:30.384Z,86
2022-08-26T01:28:55.532Z,86
2022-08-26T01:32:20.694Z,86
2022-08-26T01:35:45.868Z,86
2022-08-26T01:39:11.072Z,86
2022-08-26T01:42:36.235Z,86
2022-08-26T01:46:01.478Z,86
2022-08-26T01:49:26.623Z,86
2022-08-26T01:52:54.359Z,86
2022-08-26T01:56:17.005Z,86
2022-08-26T01:59:42.155Z,86
2022-08-26T02:03:07.513Z,86
2022-08-26T02:06:32.516Z,87
2022-08-26T02:09:57.694Z,87
2022-08-26T02:13:22.951Z,87
2022-08-26T02:16:48.151Z,87
2022-08-26T02:20:14.898Z,87
2022-08-26T02:23:38.563Z,87
2022-08-26T02:27:03.732Z,87
2022-08-26T02:30:28.884Z,87
2022-08-26T02:33:54.056Z,87
2022-08-26T02:37:19.222Z,87
2022-08-26T02:40:44.457Z,87
2022-08-26T02:44:09.617Z,87
2022-08-26T02:47:34.825Z,87
2022-08-26T02:51:00.025Z,87
2022-08-26T02:54:25.188Z,87
2022-08-26T02:57:50.379Z,87
2022-08-26T03:01:15.617Z,87
2022-08-26T03:04:40.755Z,87
2022-08-26T03:08:05.966Z,87
2022-08-26T03:11:33.099Z,86
2022-08-26T03:14:56.372Z,86
2022-08-26T03:18:21.546Z,87
2022-08-26T03:21:47.187Z,87
2022-08-26T03:25:11.937Z,87
2022-08-26T03:28:37.142Z,87
2022-08-26T03:32:02.363Z,87
2022-08-26T03:35:27.616Z,87
2022-08-26T03:38:52.792Z,87
2022-08-26T03:42:18.557Z,87
2022-08-26T03:45:45.930Z,88
2022-08-26T03:49:13.185Z,88
2022-08-26T03:52:41.849Z,88
2022-08-26T03:56:03.549Z,88
2022-08-26T03:59:28.747Z,87
2022-08-26T04:02:54.003Z,87
2022-08-26T04:06:19.171Z,88
2022-08-26T04:09:44.369Z,88
2022-08-26T04:13:09.594Z,88
2022-08-26T04:16:34.794Z,89
2022-08-26T04:19:59.968Z,89
2022-08-26T04:23:25.188Z,89
2022-08-26T04:26:50.391Z,89
2022-08-26T04:30:15.608Z,89
2022-08-26T04:33:41.643Z,89
2022-08-26T04:37:06.065Z,89
2022-08-26T04:40:31.374Z,89
2022-08-26T04:43:56.591Z,89
2022-08-26T04:47:21.819Z,89
2022-08-26T04:50:50.683Z,89
2022-08-26T04:54:16.335Z,90
2022-08-26T04:57:41.135Z,89
2022-08-26T05:01:06.344Z,89
2022-08-26T05:04:31.581Z,89
2022-08-26T05:07:56.767Z,89
2022-08-26T05:11:22.067Z,90
2022-08-26T05:14:47.191Z,90
2022-08-26T05:18:12.426Z,90
2022-08-26T05:21:37.652Z,90
2022-08-26T05:25:02.868Z,91
2022-08-26T05:28:28.107Z,91
2022-08-26T05:31:53.327Z,91
2022-08-26T05:35:18.549Z,90
2022-08-26T05:38:43.924Z,90
2022-08-26T05:42:08.973Z,91
2022-08-26T05:45:34.198Z,90
2022-08-26T05:48:59.414Z,91
2022-08-26T05:52:26.056Z,91
2022-08-26T05:55:49.824Z,91
2022-08-26T05:59:15.025Z,91
2022-08-26T06:02:40.308Z,91
2022-08-26T06:06:05.483Z,92
2022-08-26T06:09:30.705Z,91
2022-08-26T06:12:55.939Z,92
2022-08-26T06:16:21.154Z,91
2022-08-26T06:19:46.336Z,91
2022-08-26T06:23:11.574Z,91
2022-08-26T06:26:36.790Z,90
2022-08-26T06:30:01.987Z,90
2022-08-26T06:33:27.173Z,89
2022-08-26T06:36:53.199Z,89
2022-08-26T06:40:17.687Z,87
2022-08-26T06:43:42.795Z,88
2022-08-26T06:47:08.017Z,88
2022-08-26T06:50:33.234Z,88
2022-08-26T06:53:58.456Z,87
2022-08-26T06:57:23.645Z,87
2022-08-26T07:00:48.844Z,87
2022-08-26T07:04:14.106Z,85
2022-08-26T07:07:39.358Z,85
2022-08-26T07:11:04.587Z,86
2022-08-26T07:14:29.797Z,86
2022-08-26T07:17:55.036Z,86
2022-08-26T07:21:20.261Z,85
2022-08-26T07:24:45.493Z,86
2022-08-26T07:28:10.715Z,84
2022-08-26T07:31:39.340Z,83
2022-08-26T07:35:01.179Z,83
2022-08-26T07:38:26.449Z,83
2022-08-26T07:41:51.669Z,82
2022-08-26T07:45:16.893Z,82
2022-08-26T07:48:46.034Z,79
2022-08-26T07:52:07.347Z,81
2022-08-26T07:55:32.588Z,81
2022-08-26T07:58:57.806Z,81
2022-08-26T08:02:23.030Z,81
2022-08-26T08:05:48.268Z,80
2022-08-26T08:09:13.469Z,80
2022-08-26T08:12:38.738Z,80
2022-08-26T08:16:03.920Z,78
2022-08-26T08:19:29.927Z,77
2022-08-26T08:22:54.282Z,76
2022-08-26T08:26:19.464Z,76
2022-08-26T08:29:44.722Z,76
2022-08-26T08:33:09.964Z,74
2022-08-26T08:36:35.834Z,76
2022-08-26T08:40:00.458Z,75
2022-08-26T08:43:25.700Z,74
2022-08-26T08:46:50.935Z,74
2022-08-26T08:50:16.198Z,74
2022-08-26T08:53:41.442Z,73
2022-08-26T08:57:06.667Z,74
2022-08-26T09:00:32.645Z,73
2022-08-26T09:03:57.213Z,73
2022-08-26T09:07:22.443Z,73
2022-08-26T09:10:47.674Z,72
2022-08-26T09:14:13.081Z,73
2022-08-26T09:17:38.410Z,73
2022-08-26T09:21:03.716Z,72
2022-08-26T09:24:28.993Z,72
2022-08-26T09:27:54.155Z,72
2022-08-26T09:31:19.432Z,72
2022-08-26T09:34:44.630Z,71
2022-08-26T09:38:11.621Z,69
2022-08-26T09:41:35.060Z,70
2022-08-26T09:45:00.302Z,67
2022-08-26T09:48:25.557Z,68
2022-08-26T09:51:50.794Z,67
2022-08-26T09:55:16.029Z,68
2022-08-26T09:58:41.842Z,68
2022-08-26T10:02:06.515Z,68
2022-08-26T10:05:31.740Z,68
2022-08-26T10:08:56.991Z,69
2022-08-26T10:12:28.973Z,68
2022-08-26T10:15:54.397Z,69
2022-08-26T10:19:19.755Z,68
2022-08-26T10:22:45.007Z,67
2022-08-26T10:26:10.233Z,68
2022-08-26T10:29:35.471Z,68
2022-08-26T10:33:00.705Z,68
2022-08-26T10:36:25.920Z,66
2022-08-26T10:39:57.045Z,66
2022-08-26T10:43:16.363Z,66
2022-08-26T10:46:41.581Z,67
2022-08-26T10:50:06.811Z,68
2022-08-26T10:53:32.601Z,69
2022-08-26T10:56:57.342Z,69
2022-08-26T12:58:31.386Z,72
2022-08-26T13:01:57.147Z,72
2022-08-26T13:05:22.784Z,71
2022-08-26T13:08:48.092Z,70
2022-08-26T13:12:13.337Z,72
2022-08-26T13:15:38.638Z,72
2022-08-26T13:19:03.881Z,72
2022-08-26T13:22:29.194Z,69
2022-08-26T13:25:54.390Z,70
2022-08-26T13:29:19.621Z,70
2022-08-26T13:32:44.845Z,70
2022-08-26T13:36:10.092Z,69
2022-08-26T13:39:35.353Z,69
2022-08-26T13:43:00.607Z,70
2022-08-26T13:46:25.966Z,68
2022-08-26T13:49:51.128Z,68
2022-08-26T13:53:16.349Z,67
2022-08-26T13:56:44.098Z,67
2022-08-26T14:00:11.519Z,68
2022-08-26T14:03:36.756Z,69
2022-08-26T14:07:01.987Z,68
2022-08-26T14:10:27.281Z,66
2022-08-26T14:13:52.522Z,67
2022-08-26T14:17:17.790Z,66
2022-08-26T14:20:43.011Z,67
2022-08-26T14:24:08.287Z,66
2022-08-26T14:27:33.561Z,66
2022-08-26T15:06:36.025Z,64
2022-08-26T15:10:01.257Z,65
2022-08-26T15:13:26.489Z,65
2022-08-26T15:16:51.736Z,64
2022-08-26T15:20:16.970Z,65
2022-08-26T15:23:42.211Z,65
2022-08-26T15:27:07.441Z,65
2022-08-26T15:30:32.684Z,66
